Time;durP1;ratioP1;P1;durP2;ratioP2;P2;SDS_P1;SDS_P2;PMS_P1;PMS_P2;Temp;Humidity;BMP_temperature;BMP_pressure;BME280_temperature;BME280_humidity;BME280_pressure;Samples;Min_cycle;Max_cycle;Signal;HPM_P1;HPM_P2
2023/08/30 00:03:33;;;;;;;39.22;25.40;;;;;;;-147.65;100.00;57646.63;10485729;28;20046;-81
2023/08/30 00:08:33;;;;;;;42.10;27.38;;;;;;;-147.65;100.00;57646.63;10490603;28;20496;-80
2023/08/30 00:13:34;;;;;;;44.53;28.40;;;;;;;-147.65;100.00;57646.63;10487928;28;20041;-80
2023/08/30 00:18:35;;;;;;;41.63;28.45;;;;;;;-147.65;100.00;57646.63;10489542;28;20136;-80
2023/08/30 00:23:35;;;;;;;45.95;29.35;;;;;;;-147.65;100.00;57646.63;10487246;28;20194;-78
2023/08/30 00:28:36;;;;;;;41.47;29.70;;;;;;;-147.65;100.00;57646.63;10489280;28;20036;-78
2023/08/30 00:33:37;;;;;;;45.17;28.83;;;;;;;-147.65;100.00;57646.63;10481528;28;20029;-79
2023/08/30 00:38:38;;;;;;;44.42;28.35;;;;;;;-147.65;100.00;57646.63;10479191;28;20135;-79
2023/08/30 00:43:39;;;;;;;45.53;29.05;;;;;;;-147.65;100.00;57646.63;10487139;28;20093;-79
2023/08/30 00:48:40;;;;;;;47.53;30.10;;;;;;;-147.65;100.00;57646.63;10487163;28;20102;-80
2023/08/30 00:53:40;;;;;;;34.88;22.50;;;;;;;-147.65;100.00;57646.63;10470978;28;20052;-79
2023/08/30 00:58:41;;;;;;;40.78;28.67;;;;;;;-147.65;100.00;57646.63;10487231;28;20037;-79
2023/08/30 01:03:41;;;;;;;41.90;26.92;;;;;;;-147.65;100.00;57646.63;10486128;28;20496;-79
2023/08/30 01:08:42;;;;;;;52.20;26.55;;;;;;;-147.65;100.00;57646.63;10487709;28;20081;-79
2023/08/30 01:13:53;;;;;;;46.28;27.77;;;;;;;-147.65;100.00;57646.63;10486373;28;20147;-79
2023/08/30 01:18:56;;;;;;;51.28;28.55;;;;;;;-147.65;100.00;57646.63;10468497;28;20094;-79
2023/08/30 01:24:00;;;;;;;41.75;27.90;;;;;;;-147.65;100.00;57646.63;10477770;28;20103;-79
2023/08/30 01:29:00;;;;;;;47.08;28.23;;;;;;;-147.65;100.00;57646.63;10443629;28;20044;-79
2023/08/30 01:34:04;;;;;;;40.28;24.85;;;;;;;-147.65;100.00;57646.63;10451634;28;20116;-78
2023/08/30 01:39:04;;;;;;;38.22;27.23;;;;;;;-147.65;100.00;57646.63;10443905;28;20409;-79
2023/08/30 01:44:05;;;;;;;46.38;25.33;;;;;;;-147.65;100.00;57646.63;10443701;28;20039;-79
2023/08/30 01:49:06;;;;;;;43.75;26.70;;;;;;;-147.65;100.00;57646.63;10412680;28;20045;-79
2023/08/30 01:54:06;;;;;;;49.17;27.88;;;;;;;-147.65;100.00;57646.63;10408851;28;20072;-79
2023/08/30 01:59:07;;;;;;;40.85;28.17;;;;;;;-147.65;100.00;57646.63;10442957;28;20039;-79
2023/08/30 02:04:07;;;;;;;39.50;25.95;;;;;;;-147.65;100.00;57646.63;10440651;28;20044;-79
2023/08/30 02:09:14;;;;;;;38.65;22.42;;;;;;;-147.65;100.00;57646.63;10442853;28;20037;-80
2023/08/30 02:14:18;;;;;;;51.20;29.90;;;;;;;-147.65;100.00;57646.63;10480998;28;20041;-79
2023/08/30 02:19:20;;;;;;;48.72;28.58;;;;;;;-147.65;100.00;57646.63;10465597;28;20481;-79
2023/08/30 02:24:21;;;;;;;42.72;27.38;;;;;;;-147.65;100.00;57646.63;10466403;28;20102;-79
2023/08/30 02:29:22;;;;;;;52.17;27.73;;;;;;;-147.65;100.00;57646.63;10484720;28;20086;-79
2023/08/30 02:34:22;;;;;;;46.40;29.95;;;;;;;-147.65;100.00;57646.63;10482782;28;20036;-80
2023/08/30 02:39:23;;;;;;;38.30;26.73;;;;;;;-147.65;100.00;57646.63;10481269;28;20037;-79
2023/08/30 02:44:23;;;;;;;48.17;31.52;;;;;;;-147.65;100.00;57646.63;10483171;28;20037;-79
2023/08/30 02:49:24;;;;;;;44.88;28.80;;;;;;;-147.65;100.00;57646.63;10460916;28;20039;-79
2023/08/30 02:54:24;;;;;;;45.75;29.63;;;;;;;-147.65;100.00;57646.63;10470720;28;20067;-79
2023/08/30 02:59:25;;;;;;;52.17;32.42;;;;;;;-147.65;100.00;57646.63;10481078;28;20086;-80
2023/08/30 03:04:25;;;;;;;48.95;29.42;;;;;;;-147.65;100.00;57646.63;10484147;28;20119;-79
2023/08/30 03:09:26;;;;;;;52.30;31.40;;;;;;;-147.65;100.00;57646.63;10465597;28;20127;-80
2023/08/30 03:14:26;;;;;;;46.13;27.50;;;;;;;-147.65;100.00;57646.63;10478516;28;20542;-80
2023/08/30 03:19:27;;;;;;;45.08;27.40;;;;;;;-147.65;100.00;57646.63;10465918;28;20033;-80
2023/08/30 03:24:28;;;;;;;44.38;27.52;;;;;;;-147.65;100.00;57646.63;10482153;28;20556;-79
2023/08/30 03:29:29;;;;;;;42.92;28.30;;;;;;;-147.65;100.00;57646.63;10471569;28;20040;-79
2023/08/30 03:34:29;;;;;;;36.72;25.23;;;;;;;-147.65;100.00;57646.63;10485878;28;20082;-79
2023/08/30 03:39:30;;;;;;;43.13;26.33;;;;;;;-147.65;100.00;57646.63;10489336;28;20053;-79
2023/08/30 03:44:30;;;;;;;37.17;23.92;;;;;;;-147.65;100.00;57646.63;10488515;28;20047;-79
2023/08/30 03:49:31;;;;;;;39.63;25.50;;;;;;;-147.65;100.00;57646.63;10473817;28;20128;-79
2023/08/30 03:54:32;;;;;;;55.17;30.80;;;;;;;-147.65;100.00;57646.63;10488999;28;20151;-79
2023/08/30 03:59:33;;;;;;;46.45;28.65;;;;;;;-147.65;100.00;57646.63;10487077;28;20043;-79
2023/08/30 04:04:33;;;;;;;53.97;33.25;;;;;;;-147.65;100.00;57646.63;10489096;28;20408;-79
2023/08/30 04:09:34;;;;;;;50.97;30.25;;;;;;;-147.65;100.00;57646.63;10489510;28;20025;-79
2023/08/30 04:14:34;;;;;;;42.10;28.35;;;;;;;-147.65;100.00;57646.63;10487907;28;20604;-78
2023/08/30 04:19:35;;;;;;;60.92;32.80;;;;;;;-147.65;100.00;57646.63;10489246;28;20048;-79
2023/08/30 04:24:35;;;;;;;45.85;28.60;;;;;;;-147.65;100.00;57646.63;10487164;28;20041;-79
2023/08/30 04:29:36;;;;;;;48.10;29.98;;;;;;;-147.65;100.00;57646.63;10477837;28;20049;-79
2023/08/30 04:34:36;;;;;;;55.25;31.45;;;;;;;-147.65;100.00;57646.63;10452650;28;20097;-79
2023/08/30 04:39:37;;;;;;;57.35;34.33;;;;;;;-147.65;100.00;57646.63;10486466;28;20040;-79
2023/08/30 04:44:37;;;;;;;57.78;32.55;;;;;;;-147.65;100.00;57646.63;10488416;28;20484;-79
2023/08/30 04:49:38;;;;;;;48.35;30.85;;;;;;;-147.65;100.00;57646.63;10486685;28;20062;-79
2023/08/30 04:54:38;;;;;;;54.42;32.45;;;;;;;-147.65;100.00;57646.63;10486381;28;20066;-79
2023/08/30 04:59:39;;;;;;;54.08;31.55;;;;;;;-147.65;100.00;57646.63;10484794;28;20033;-78
2023/08/30 05:04:40;;;;;;;54.55;33.08;;;;;;;-147.65;100.00;57646.63;10452165;28;20037;-79
2023/08/30 05:09:40;;;;;;;57.55;32.70;;;;;;;-147.65;100.00;57646.63;10479931;28;20559;-78
2023/08/30 05:14:41;;;;;;;61.72;34.13;;;;;;;-147.65;100.00;57646.63;10485827;28;20036;-79
2023/08/30 05:19:41;;;;;;;61.85;34.80;;;;;;;-147.65;100.00;57646.63;10480421;28;20473;-79
2023/08/30 05:24:42;;;;;;;62.47;36.90;;;;;;;-147.65;100.00;57646.63;10465376;28;20090;-78
2023/08/30 05:29:42;;;;;;;62.78;35.45;;;;;;;-147.65;100.00;57646.63;10477479;28;20041;-80
2023/08/30 05:34:43;;;;;;;65.90;39.88;;;;;;;-147.65;100.00;57646.63;10455958;28;20039;-79
2023/08/30 05:39:43;;;;;;;305.10;73.68;;;;;;;-147.65;100.00;57646.63;10442674;28;20037;-80
2023/08/30 05:44:44;;;;;;;1999.90;999.90;;;;;;;-147.65;100.00;57646.63;10501308;28;20042;-79
2023/08/30 05:49:44;;;;;;;1526.03;774.05;;;;;;;-147.65;100.00;57646.63;10465814;28;20039;-80
2023/08/30 05:54:45;;;;;;;49.65;32.15;;;;;;;-147.65;100.00;57646.63;10483227;28;20056;-79
2023/08/30 05:59:46;;;;;;;1999.90;999.90;;;;;;;-147.65;100.00;57646.63;10485383;28;20028;-78
2023/08/30 06:04:46;;;;;;;107.78;102.13;;;;;;;-147.65;100.00;57646.63;10455349;28;20037;-79
2023/08/30 06:09:47;;;;;;;1999.90;999.90;;;;;;;-147.65;100.00;57646.63;10483827;28;20085;-78
2023/08/30 06:14:51;;;;;;;1999.90;999.90;;;;;;;-147.65;100.00;57646.63;10483200;28;20037;-79
2023/08/30 06:19:52;;;;;;;1999.90;999.90;;;;;;;-147.65;100.00;57646.63;10465662;28;20040;-80
2023/08/30 06:24:52;;;;;;;1999.90;999.90;;;;;;;-147.65;100.00;57646.63;10481331;28;20036;-79
2023/08/30 06:29:53;;;;;;;1999.90;999.90;;;;;;;-147.65;100.00;57646.63;10483541;28;20036;-80
2023/08/30 06:34:54;;;;;;;1999.90;999.90;;;;;;;-147.65;100.00;57646.63;10460945;28;20048;-81
2023/08/30 06:39:54;;;;;;;1999.90;999.90;;;;;;;-147.65;100.00;57646.63;10482785;28;20124;-81
2023/08/30 06:44:55;;;;;;;1999.90;999.90;;;;;;;-147.65;100.00;57646.63;10482293;28;20043;-81
2023/08/30 06:49:55;;;;;;;1999.90;999.90;;;;;;;-147.65;100.00;57646.63;10481674;28;20075;-81
2023/08/30 06:54:56;;;;;;;1999.90;999.90;;;;;;;-147.65;100.00;57646.63;10479813;28;20120;-81
2023/08/30 06:59:58;;;;;;;1999.90;999.90;;;;;;;-147.65;100.00;57646.63;10481935;28;20044;-81
2023/08/30 07:04:59;;;;;;;165.75;140.43;;;;;;;-147.65;100.00;57646.63;10480284;28;20063;-82
2023/08/30 07:10:00;;;;;;;0.40;0.40;;;;;;;-147.65;100.00;57646.63;10486182;28;20060;-81
2023/08/30 07:15:00;;;;;;;0.40;0.40;;;;;;;-147.65;100.00;57646.63;10491861;28;20040;-81
2023/08/30 07:20:01;;;;;;;0.30;0.30;;;;;;;-147.65;100.00;57646.63;10492927;28;20036;-83
2023/08/30 07:25:02;;;;;;;0.30;0.30;;;;;;;-147.65;100.00;57646.63;10491717;28;20063;-83
2023/08/30 07:30:04;;;;;;;0.30;0.30;;;;;;;-147.65;100.00;57646.63;10473451;28;20036;-80
2023/08/30 07:35:05;;;;;;;15.20;10.50;;;;;;;-147.65;100.00;57646.63;10443975;28;20395;-80
2023/08/30 07:40:06;;;;;;;12.23;9.77;;;;;;;-147.65;100.00;57646.63;10458891;28;20127;-80
2023/08/30 07:45:08;;;;;;;14.88;9.48;;;;;;;-147.65;100.00;57646.63;10486316;28;20119;-80
2023/08/30 07:50:09;;;;;;;18.63;10.15;;;;;;;-147.65;100.00;57646.63;10486950;28;20074;-82
2023/08/30 07:55:09;;;;;;;18.27;11.65;;;;;;;-147.65;100.00;57646.63;10471611;28;20052;-80
2023/08/30 08:00:10;;;;;;;11.38;8.23;;;;;;;-147.65;100.00;57646.63;10480090;28;20370;-81
2023/08/30 08:05:11;;;;;;;13.18;9.77;;;;;;;-147.65;100.00;57646.63;10449344;28;20525;-83
2023/08/30 08:10:11;;;;;;;10.55;8.35;;;;;;;-147.65;100.00;57646.63;10451176;28;20045;-82
2023/08/30 08:15:12;;;;;;;11.13;7.47;;;;;;;-147.65;100.00;57646.63;10497793;28;20040;-84
2023/08/30 08:20:13;;;;;;;11.10;7.15;;;;;;;-147.65;100.00;57646.63;10485283;28;20064;-82
2023/08/30 08:25:15;;;;;;;12.33;6.73;;;;;;;-147.65;100.00;57646.63;10470901;28;20040;-83
2023/08/30 08:30:16;;;;;;;11.02;6.28;;;;;;;-147.65;100.00;57646.63;10489287;28;20033;-80
2023/08/30 08:35:17;;;;;;;9.80;5.72;;;;;;;-147.65;100.00;57646.63;10488455;28;20489;-79
2023/08/30 08:40:17;;;;;;;9.00;6.45;;;;;;;-147.65;100.00;57646.63;10488997;28;20459;-80
2023/08/30 08:45:19;;;;;;;10.88;6.47;;;;;;;-147.65;100.00;57646.63;10485805;28;20036;-81
2023/08/30 08:50:25;;;;;;;269.17;243.23;;;;;;;-147.65;100.00;57646.63;10469533;28;20488;-83
2023/08/30 08:55:26;;;;;;;8.07;6.93;;;;;;;-147.65;100.00;57646.63;10410500;28;20474;-81
2023/08/30 09:00:27;;;;;;;11.02;10.07;;;;;;;-147.65;100.00;57646.63;10403690;28;20045;-80
2023/08/30 09:05:28;;;;;;;123.20;58.45;;;;;;;-147.65;100.00;57646.63;10438873;28;20033;-79
2023/08/30 09:10:28;;;;;;;51.35;48.95;;;;;;;-147.65;100.00;57646.63;10427776;28;20044;-79
2023/08/30 09:15:32;;;;;;;30.95;29.23;;;;;;;-147.65;100.00;57646.63;10426066;28;20112;-80
2023/08/30 09:20:33;;;;;;;1999.90;999.90;;;;;;;-147.65;100.00;57646.63;10477626;28;20354;-80
2023/08/30 09:25:34;;;;;;;64.30;61.13;;;;;;;-147.65;100.00;57646.63;10445870;28;20036;-80
2023/08/30 09:30:34;;;;;;;93.18;89.47;;;;;;;-147.65;100.00;57646.63;10441065;28;20512;-81
2023/08/30 09:35:43;;;;;;;128.15;123.13;;;;;;;-147.65;100.00;57646.63;10407353;28;20128;-83
2023/08/30 09:40:44;;;;;;;1999.90;999.90;;;;;;;-147.65;100.00;57646.63;10455344;28;20472;-81
2023/08/30 09:45:45;;;;;;;170.47;162.43;;;;;;;-147.65;100.00;57646.63;10411983;28;20034;-81
2023/08/30 09:50:45;;;;;;;62.90;58.80;;;;;;;-147.65;100.00;57646.63;10458538;28;20037;-83
2023/08/30 09:55:46;;;;;;;63.05;60.40;;;;;;;-147.65;100.00;57646.63;10439353;28;20044;-81
2023/08/30 10:00:50;;;;;;;36.67;34.75;;;;;;;-147.65;100.00;57646.63;10405287;28;20037;-81
2023/08/30 10:05:50;;;;;;;67.97;65.60;;;;;;;-147.65;100.00;57646.63;10403376;28;20037;-82
2023/08/30 10:10:51;;;;;;;81.97;79.28;;;;;;;-147.65;100.00;57646.63;10440006;28;20113;-81
2023/08/30 10:15:53;;;;;;;167.82;162.23;;;;;;;-147.65;100.00;57646.63;10425701;28;20039;-81
2023/08/30 10:20:54;;;;;;;164.27;157.45;;;;;;;-147.65;100.00;57646.63;10423723;28;20033;-81
2023/08/30 10:25:54;;;;;;;200.52;192.63;;;;;;;-147.65;100.00;57646.63;10438891;28;20132;-81
2023/08/30 10:30:55;;;;;;;1999.90;999.90;;;;;;;-147.65;100.00;57646.63;10440157;28;20044;-80
2023/08/30 10:36:04;;;;;;;1999.90;999.90;;;;;;;-147.65;100.00;57646.63;10441664;28;20124;-80
2023/08/30 10:41:09;;;;;;;1999.90;999.90;;;;;;;-147.65;100.00;57646.63;10460391;28;20508;-81
2023/08/30 10:46:12;;;;;;;1999.90;999.90;;;;;;;-147.65;100.00;57646.63;10454201;28;20044;-79
2023/08/30 10:57:00;;;;;;;1999.90;999.90;;;;;;;14.51;100.00;100292.22;10520505;27;20761;-79
2023/08/30 11:02:01;;;;;;;1999.90;999.90;;;;;;;14.95;100.00;100278.28;10482458;28;20038;-78
2023/08/30 11:07:01;;;;;;;1999.90;999.90;;;;;;;15.45;100.00;100272.19;10464614;28;20038;-78
2023/08/30 11:12:04;;;;;;;1999.90;999.90;;;;;;;15.78;100.00;100273.63;10439881;28;20068;-77
2023/08/30 11:17:05;;;;;;;1999.90;999.90;;;;;;;15.85;100.00;100283.44;10443349;28;20465;-77
2023/08/30 11:22:05;;;;;;;1999.90;999.90;;;;;;;15.54;100.00;100296.09;10445458;28;20075;-78
2023/08/30 11:27:06;;;;;;;1999.90;999.90;;;;;;;14.98;100.00;100296.78;10453938;28;20083;-79
2023/08/30 11:32:07;;;;;;;1999.90;999.90;;;;;;;14.65;100.00;100293.41;10476342;28;20827;-79
2023/08/30 11:37:08;;;;;;;1999.90;999.90;;;;;;;14.31;100.00;100290.03;10462277;28;20102;-79
2023/08/30 11:42:09;;;;;;;1999.90;999.90;;;;;;;14.22;100.00;100280.19;10436698;28;20577;-80
2023/08/30 11:47:09;;;;;;;1999.90;999.90;;;;;;;14.37;100.00;100270.88;10450819;28;20041;-80
2023/08/30 11:52:10;;;;;;;1999.90;999.90;;;;;;;14.95;100.00;100260.69;10466833;28;20045;-80
2023/08/30 11:57:11;;;;;;;1999.90;999.90;;;;;;;15.17;100.00;100263.75;10451005;28;20094;-79
2023/08/30 12:02:14;;;;;;;1999.90;999.90;;;;;;;15.12;100.00;100262.78;10454833;28;20056;-80
2023/08/30 12:07:22;;;;;;;1999.90;999.90;;;;;;;14.94;100.00;100272.09;10433977;28;20041;-80
2023/08/30 12:12:23;;;;;;;1999.90;999.90;;;;;;;14.67;100.00;100275.03;10423363;28;20125;-81
2023/08/30 12:17:24;;;;;;;1999.90;999.90;;;;;;;14.51;100.00;100273.78;10483922;28;20049;-81
2023/08/30 12:22:40;;;;;;;1999.90;999.90;;;;;;;14.25;100.00;100266.19;10469143;28;20866;-81
2023/08/30 12:27:41;;;;;;;1999.90;999.90;;;;;;;14.28;100.00;100268.03;10446524;28;20489;-80
2023/08/30 12:32:45;;;;;;;1999.90;999.90;;;;;;;14.50;100.00;100269.38;10441778;28;20042;-81
2023/08/30 12:37:45;;;;;;;1999.90;999.90;;;;;;;14.72;100.00;100267.25;10429077;28;20477;-81
2023/08/30 12:42:46;;;;;;;1999.90;999.90;;;;;;;15.01;100.00;100254.69;10429912;28;20033;-81
2023/08/30 12:47:46;;;;;;;1999.90;999.90;;;;;;;15.60;100.00;100245.22;10444457;28;20128;-80
2023/08/30 12:52:47;;;;;;;1999.90;999.90;;;;;;;15.62;100.00;100254.03;10446560;28;20051;-80
2023/08/30 12:57:48;;;;;;;1999.90;999.90;;;;;;;15.66;100.00;100257.59;10445262;28;20037;-81
2023/08/30 13:02:48;;;;;;;1999.90;999.90;;;;;;;15.64;100.00;100264.59;10444973;28;20037;-80
2023/08/30 13:07:49;;;;;;;1999.90;999.90;;;;;;;15.52;100.00;100265.28;10423019;28;20038;-80
2023/08/30 13:12:49;;;;;;;1999.90;999.90;;;;;;;15.19;100.00;100266.44;10427482;28;20051;-80
2023/08/30 13:17:50;;;;;;;1999.90;999.90;;;;;;;14.90;100.00;100267.63;10404622;28;20150;-79
2023/08/30 13:22:51;;;;;;;1999.90;999.90;;;;;;;14.75;100.00;100277.84;10424684;28;20034;-80
2023/08/30 13:27:52;;;;;;;1999.90;999.90;;;;;;;14.64;100.00;100286.38;10483779;28;20383;-80
2023/08/30 13:32:52;;;;;;;1999.90;999.90;;;;;;;14.53;100.00;100274.72;10459336;28;20037;-81
2023/08/30 13:37:53;;;;;;;1999.90;999.90;;;;;;;14.49;100.00;100275.50;10420048;28;20040;-91
2023/08/30 13:42:54;;;;;;;1999.90;999.90;;;;;;;14.34;100.00;100276.06;10456142;28;20045;-90
2023/08/30 13:47:55;;;;;;;1999.90;999.90;;;;;;;14.36;100.00;100272.59;10427162;28;20489;-87
2023/08/30 13:52:58;;;;;;;1999.90;999.90;;;;;;;14.67;100.00;100267.13;10434227;28;20501;-79
2023/08/30 13:58:02;;;;;;;1999.90;999.90;;;;;;;14.79;100.00;100272.69;10423974;28;20053;-79
2023/08/30 14:03:03;;;;;;;1999.90;999.90;;;;;;;14.84;100.00;100267.50;10470701;28;20479;-79
2023/08/30 14:08:04;;;;;;;1999.90;999.90;;;;;;;15.10;100.00;100275.94;10432778;28;20084;-77
2023/08/30 14:13:05;;;;;;;1999.90;999.90;;;;;;;15.45;100.00;100266.91;10452537;28;20036;-79
2023/08/30 14:18:05;;;;;;;1999.90;999.90;;;;;;;16.92;100.00;100264.72;10430726;28;20107;-78
2023/08/30 14:23:06;;;;;;;1999.90;999.90;;;;;;;19.60;100.00;100265.66;10460408;28;20155;-79
2023/08/30 14:28:06;;;;;;;1069.30;562.78;;;;;;;20.82;100.00;100280.59;10452851;28;20856;-79
2023/08/30 14:33:10;;;;;;;1999.90;999.90;;;;;;;19.76;100.00;100301.03;10460037;28;20037;-79
2023/08/30 14:38:11;;;;;;;1999.90;999.90;;;;;;;18.38;100.00;100277.56;10456581;28;20103;-79
2023/08/30 14:43:12;;;;;;;1999.90;999.90;;;;;;;20.67;100.00;100274.41;10443033;28;20055;-77
2023/08/30 14:48:13;;;;;;;1999.90;999.90;;;;;;;21.96;100.00;100294.97;10408567;28;20061;-78
2023/08/30 14:53:13;;;;;;;1999.90;999.90;;;;;;;21.80;100.00;100296.91;10429217;28;20045;-78
2023/08/30 14:58:14;;;;;;;1999.90;999.90;;;;;;;20.74;100.00;100296.50;10456551;28;20041;-79
2023/08/30 15:03:15;;;;;;;1999.90;999.90;;;;;;;19.33;100.00;100284.16;10414643;28;20077;-78
2023/08/30 15:08:15;;;;;;;1999.90;999.90;;;;;;;19.73;100.00;100306.34;10430650;28;20045;-77
2023/08/30 15:13:16;;;;;;;1999.90;999.90;;;;;;;19.49;100.00;100313.38;10450219;28;20056;-79
2023/08/30 15:18:16;;;;;;;1999.90;999.90;;;;;;;18.17;100.00;100324.22;10472472;28;20049;-79
2023/08/30 15:23:17;;;;;;;1999.90;999.90;;;;;;;17.22;100.00;100329.44;10464734;28;20063;-81
2023/08/30 15:28:18;;;;;;;1999.90;999.90;;;;;;;17.14;100.00;100340.81;10448905;28;20051;-79
2023/08/30 15:33:19;;;;;;;1999.90;999.90;;;;;;;16.43;100.00;100340.69;10437199;28;20382;-78
2023/08/30 15:38:19;;;;;;;1999.90;999.90;;;;;;;16.02;100.00;100342.69;10454569;28;20060;-78
2023/08/30 15:43:20;;;;;;;1999.90;999.90;;;;;;;15.93;100.00;100340.75;10488251;28;20044;-78
2023/08/30 15:48:21;;;;;;;1999.90;999.90;;;;;;;16.98;100.00;100350.28;10464517;28;20051;-78
2023/08/30 15:53:21;;;;;;;1999.90;999.90;;;;;;;17.73;100.00;100364.38;10447569;28;20037;-78
2023/08/30 15:58:22;;;;;;;1999.90;999.90;;;;;;;17.23;100.00;100358.53;10465471;28;20052;-79
2023/08/30 16:03:22;;;;;;;1999.90;999.90;;;;;;;16.47;100.00;100359.22;10405622;28;20047;-79
2023/08/30 16:08:27;;;;;;;1999.90;999.90;;;;;;;16.05;100.00;100364.72;10433597;28;20508;-79
2023/08/30 16:13:28;;;;;;;17.27;16.42;;;;;;;15.85;100.00;100372.25;10489709;28;20037;-78
2023/08/30 16:18:29;;;;;;;177.53;166.90;;;;;;;15.57;100.00;100364.72;10408146;28;20045;-79
2023/08/30 16:23:31;;;;;;;75.22;45.58;;;;;;;15.40;100.00;100369.66;10455278;28;20036;-78
2023/08/30 16:28:32;;;;;;;334.80;138.40;;;;;;;15.19;100.00;100367.47;10483634;28;20045;-78
2023/08/30 16:33:41;;;;;;;1999.90;999.90;;;;;;;15.18;100.00;100364.81;10485481;28;20043;-78
2023/08/30 16:38:42;;;;;;;1999.90;999.90;;;;;;;15.23;100.00;100368.44;10439563;28;20044;-79
2023/08/30 16:43:43;;;;;;;1999.90;999.90;;;;;;;15.14;100.00;100377.03;10448499;28;20040;-78
2023/08/30 16:48:43;;;;;;;1999.90;999.90;;;;;;;15.07;100.00;100367.22;10451423;28;20036;-78
2023/08/30 16:53:44;;;;;;;1999.90;999.90;;;;;;;15.03;100.00;100382.09;10450595;28;20465;-78
2023/08/30 16:58:44;;;;;;;129.20;122.68;;;;;;;14.85;100.00;100393.09;10456658;28;20064;-78
2023/08/30 17:03:45;;;;;;;5.72;1.40;;;;;;;14.77;100.00;100389.41;10444328;28;20064;-79
2023/08/30 17:08:47;;;;;;;3.03;1.40;;;;;;;14.60;100.00;100403.03;10413006;28;20124;-78
2023/08/30 17:13:48;;;;;;;6.15;2.42;;;;;;;14.42;100.00;100405.22;10415050;28;20041;-77
2023/08/30 17:18:48;;;;;;;4.57;1.60;;;;;;;14.13;100.00;100405.38;10443338;28;20492;-77
2023/08/30 17:23:49;;;;;;;1999.90;999.90;;;;;;;13.95;100.00;100409.31;10444842;28;20033;-77
2023/08/30 17:28:50;;;;;;;1999.90;999.90;;;;;;;13.72;100.00;100425.34;10443227;28;20036;-77
2023/08/30 17:33:50;;;;;;;1999.90;999.90;;;;;;;13.50;100.00;100426.50;10442741;28;20102;-78
2023/08/30 17:38:53;;;;;;;1999.90;999.90;;;;;;;13.25;100.00;100423.13;10438209;28;20068;-77
2023/08/30 17:43:54;;;;;;;1999.90;999.90;;;;;;;13.10;100.00;100426.19;10440457;28;20037;-77
2023/08/30 17:48:54;;;;;;;1999.90;999.90;;;;;;;12.91;100.00;100444.00;10444791;28;20389;-77
2023/08/30 17:53:55;;;;;;;1999.90;999.90;;;;;;;12.73;100.00;100448.66;10443851;28;20040;-77
2023/08/30 17:58:56;;;;;;;1999.90;999.90;;;;;;;12.46;100.00;100452.16;10456208;28;20401;-78
2023/08/30 18:03:56;;;;;;;1999.90;999.90;;;;;;;12.28;100.00;100452.47;10463237;28;20434;-78
2023/08/30 18:08:57;;;;;;;1999.90;999.90;;;;;;;11.97;100.00;100460.09;10444012;28;20154;-78
2023/08/30 18:13:58;;;;;;;1999.90;999.90;;;;;;;11.73;100.00;100461.00;10439906;28;20049;-78
2023/08/30 18:18:58;;;;;;;1999.90;999.90;;;;;;;11.52;100.00;100462.84;10447178;28;20492;-78
2023/08/30 18:24:18;;;;;;;1999.90;999.90;;;;;;;11.41;100.00;100465.06;10462170;28;20131;-78
2023/08/30 18:29:23;;;;;;;1999.90;999.90;;;;;;;11.30;100.00;100469.88;10428497;28;20513;-77
2023/08/30 18:34:24;;;;;;;40.28;38.42;;;;;;;11.12;100.00;100470.09;10427228;28;20073;-78
2023/08/30 18:39:24;;;;;;;217.15;118.30;;;;;;;10.96;100.00;100465.97;10452974;28;20116;-78
2023/08/30 18:44:25;;;;;;;12.32;3.20;;;;;;;10.66;100.00;100472.66;10421238;28;20049;-78
2023/08/30 18:49:25;;;;;;;4.15;1.52;;;;;;;10.46;100.00;100477.03;10457539;28;20045;-77
2023/08/30 18:54:26;;;;;;;8.07;1.52;;;;;;;10.28;100.00;100490.22;10439914;28;20514;-77
2023/08/30 18:59:28;;;;;;;5.28;1.83;;;;;;;10.11;100.00;100486.88;10437715;28;20041;-77
2023/08/30 19:04:28;;;;;;;7.43;2.10;;;;;;;9.92;100.00;100493.03;10437491;28;20052;-78
2023/08/30 19:09:30;;;;;;;12.40;2.65;;;;;;;9.83;100.00;100501.34;10444736;28;20040;-78
2023/08/30 19:14:31;;;;;;;10.23;3.65;;;;;;;9.75;100.00;100502.72;10458519;28;20431;-77
2023/08/30 19:19:33;;;;;;;6.78;2.42;;;;;;;9.72;100.00;100507.81;10453286;28;20094;-79
2023/08/30 19:24:36;;;;;;;10.13;3.17;;;;;;;9.63;100.00;100509.16;10432711;28;20036;-78
2023/08/30 19:29:37;;;;;;;13.20;5.18;;;;;;;9.55;100.00;100514.06;10398697;28;20041;-78
2023/08/30 19:34:37;;;;;;;5.63;2.90;;;;;;;9.48;100.00;100522.44;10385329;28;20041;-77
2023/08/30 19:39:38;;;;;;;10.73;3.65;;;;;;;9.45;100.00;100516.16;10402142;28;20068;-78
2023/08/30 19:44:39;;;;;;;8.35;3.78;;;;;;;9.42;100.00;100524.75;10491712;28;20532;-77
2023/08/30 19:49:40;;;;;;;8.10;3.20;;;;;;;9.43;100.00;100525.66;10471362;28;20033;-78
2023/08/30 19:54:41;;;;;;;8.65;4.03;;;;;;;9.45;100.00;100527.53;10405191;28;20339;-78
2023/08/30 19:59:41;;;;;;;1999.90;999.90;;;;;;;9.49;100.00;100532.06;10430909;28;20122;-78
2023/08/30 20:04:42;;;;;;;9.90;4.63;;;;;;;9.61;100.00;100531.72;10452499;28;20036;-77
2023/08/30 20:09:43;;;;;;;86.40;15.27;;;;;;;9.62;100.00;100541.34;10427665;28;20029;-77
2023/08/30 20:14:43;;;;;;;10.93;6.25;;;;;;;9.58;100.00;100539.41;10445082;28;20767;-77
2023/08/30 20:19:44;;;;;;;10.70;3.40;;;;;;;9.62;100.00;100540.47;10490237;28;20044;-78
2023/08/30 20:24:44;;;;;;;19.75;5.18;;;;;;;9.62;100.00;100543.09;10467521;28;20033;-78
2023/08/30 20:29:45;;;;;;;11.98;3.38;;;;;;;9.69;100.00;100530.34;10428311;28;20454;-77
2023/08/30 20:34:45;;;;;;;8.73;3.17;;;;;;;9.66;100.00;100531.94;10480378;28;20060;-78
2023/08/30 20:39:46;;;;;;;4.20;2.88;;;;;;;9.67;100.00;100532.00;10445739;28;20045;-78
2023/08/30 20:44:46;;;;;;;14.82;5.35;;;;;;;9.66;100.00;100539.78;10418870;28;20388;-77
2023/08/30 20:49:47;;;;;;;8.85;3.85;;;;;;;9.66;100.00;100532.81;10488794;28;20042;-77
2023/08/30 20:54:48;;;;;;;14.80;4.22;;;;;;;9.72;100.00;100537.47;10467564;28;20056;-77
2023/08/30 20:59:49;;;;;;;7.45;4.07;;;;;;;9.84;100.00;100526.66;10457362;28;20120;-77
2023/08/30 21:04:49;;;;;;;10.40;4.90;;;;;;;9.90;100.00;100526.94;10481583;28;20049;-77
2023/08/30 21:09:50;;;;;;;12.93;6.50;;;;;;;9.93;100.00;100524.44;10445816;28;20037;-77
2023/08/30 21:14:50;;;;;;;12.18;7.43;;;;;;;10.06;100.00;100538.06;10449992;28;20033;-77
2023/08/30 21:19:51;;;;;;;16.77;5.57;;;;;;;10.11;100.00;100539.16;10467772;28;20060;-77
2023/08/30 21:24:51;;;;;;;14.02;4.45;;;;;;;10.16;100.00;100536.78;10472148;28;20511;-77
2023/08/30 21:29:52;;;;;;;11.40;5.18;;;;;;;10.14;100.00;100542.84;10428538;28;20073;-77
2023/08/30 21:34:52;;;;;;;8.35;4.15;;;;;;;10.14;100.00;100544.53;10422541;28;20036;-78
2023/08/30 21:39:53;;;;;;;8.43;5.40;;;;;;;10.10;100.00;100556.59;10406270;28;20033;-76
2023/08/30 21:44:53;;;;;;;15.65;5.18;;;;;;;10.11;100.00;100555.78;10483262;28;20045;-78
2023/08/30 21:49:56;;;;;;;12.35;6.65;;;;;;;10.12;100.00;100551.41;10451066;28;20379;-78
2023/08/30 21:54:57;;;;;;;;;;;;;;;10.09;100.00;100557.41;10393167;28;20076;-78
2023/08/30 21:59:57;;;;;;;10.05;5.10;;;;;;;9.96;100.00;100558.56;10422556;28;20436;-78
2023/08/30 22:04:58;;;;;;;14.55;5.60;;;;;;;9.81;100.00;100553.56;10458176;28;20032;-78